createdAt,value
2023-03-23T00:00:09.903Z,996.91
2023-03-23T00:00:30.968Z,996.87
2023-03-23T00:00:52.016Z,996.89
2023-03-23T00:01:13.170Z,996.87
2023-03-23T00:01:34.519Z,996.87
2023-03-23T00:01:55.583Z,996.83
2023-03-23T00:02:16.641Z,996.85
2023-03-23T00:02:37.707Z,996.85
2023-03-23T00:02:58.779Z,996.81
2023-03-23T00:03:19.841Z,996.83
2023-03-23T00:03:40.884Z,996.85
2023-03-23T00:04:01.950Z,996.83
2023-03-23T00:04:22.997Z,996.81
2023-03-23T00:04:44.124Z,996.83
2023-03-23T00:05:05.188Z,996.81
2023-03-23T00:05:26.455Z,996.77
2023-03-23T00:05:47.571Z,996.77
2023-03-23T00:06:08.641Z,996.73
2023-03-23T00:06:29.764Z,996.79
2023-03-23T00:06:50.779Z,996.83
2023-03-23T00:07:11.860Z,996.81
2023-03-23T00:07:32.927Z,996.81
2023-03-23T00:07:54.008Z,996.85
2023-03-23T00:08:15.422Z,996.77
2023-03-23T00:08:36.493Z,996.81
2023-03-23T00:08:58.326Z,996.81
2023-03-23T00:09:19.929Z,996.81
2023-03-23T00:09:41.050Z,996.83
2023-03-23T00:10:02.113Z,996.79
2023-03-23T00:10:23.180Z,996.79
2023-03-23T00:10:44.238Z,996.79
2023-03-23T00:11:05.783Z,996.87
2023-03-23T00:11:26.816Z,996.85
2023-03-23T00:11:47.899Z,996.83
2023-03-23T00:12:08.949Z,996.83
2023-03-23T00:12:30.590Z,996.85
2023-03-23T00:12:53.132Z,996.85
2023-03-23T00:13:14.224Z,996.85
2023-03-23T00:13:35.294Z,996.85
2023-03-23T00:13:56.333Z,996.87
2023-03-23T00:14:17.412Z,996.87
2023-03-23T00:14:38.562Z,996.87
2023-03-23T00:14:59.857Z,996.87
2023-03-23T00:15:21.154Z,996.85
2023-03-23T00:15:42.509Z,996.85
2023-03-23T00:16:04.463Z,996.87
2023-03-23T00:16:25.552Z,996.87
2023-03-23T00:16:46.697Z,996.89
2023-03-23T00:17:07.757Z,996.85
2023-03-23T00:17:28.802Z,996.85
2023-03-23T00:17:49.863Z,996.81
2023-03-23T00:18:10.930Z,996.85
2023-03-23T00:18:32.322Z,996.89
2023-03-23T00:18:53.376Z,996.85
2023-03-23T00:19:14.479Z,996.89
2023-03-23T00:19:35.793Z,996.91
2023-03-23T00:19:56.865Z,996.83
2023-03-23T00:20:17.952Z,996.83
2023-03-23T00:20:39.017Z,996.85
2023-03-23T00:21:00.111Z,996.83
2023-03-23T00:21:21.144Z,996.81
2023-03-23T00:21:42.215Z,996.85
2023-03-23T00:22:03.264Z,996.83
2023-03-23T00:22:24.333Z,996.79
2023-03-23T00:22:45.418Z,996.85
2023-03-23T00:23:06.473Z,996.85
2023-03-23T00:23:27.515Z,996.83
2023-03-23T00:23:48.616Z,996.81
2023-03-23T00:24:09.654Z,996.85
2023-03-23T00:24:30.732Z,996.85
2023-03-23T00:24:51.826Z,996.85
2023-03-23T00:25:12.917Z,996.85
2023-03-23T00:25:34.181Z,996.83
2023-03-23T00:25:55.271Z,996.83
2023-03-23T00:26:16.333Z,996.83
2023-03-23T00:26:48.180Z,996.81
2023-03-23T00:27:04.366Z,996.85
2023-03-23T00:27:25.453Z,996.83
2023-03-23T00:27:46.500Z,996.81
2023-03-23T00:28:07.576Z,996.81
2023-03-23T00:28:28.634Z,996.79
2023-03-23T00:28:49.781Z,996.81
2023-03-23T00:29:10.832Z,996.79
2023-03-23T00:29:31.939Z,996.81
2023-03-23T00:29:52.993Z,996.77
2023-03-23T00:30:14.094Z,996.83
2023-03-23T00:30:35.128Z,996.85
2023-03-23T00:30:56.254Z,996.81
2023-03-23T00:31:17.334Z,996.81
2023-03-23T00:31:38.547Z,996.81
2023-03-23T00:31:59.628Z,996.81
2023-03-23T00:32:20.662Z,996.81
2023-03-23T00:32:41.725Z,996.77
2023-03-23T00:33:02.782Z,996.79
2023-03-23T00:33:23.872Z,996.77
2023-03-23T00:33:44.913Z,996.83
2023-03-23T00:34:06.058Z,996.83
2023-03-23T00:34:27.209Z,996.81
2023-03-23T00:34:48.255Z,996.75
2023-03-23T00:35:09.330Z,996.79
2023-03-23T00:35:30.424Z,996.79
2023-03-23T00:35:51.487Z,996.77
2023-03-23T00:36:12.552Z,996.79
2023-03-23T00:36:33.620Z,996.77
2023-03-23T00:36:54.690Z,996.73
2023-03-23T00:37:15.744Z,996.71
2023-03-23T00:37:36.777Z,996.73
2023-03-23T00:37:58.471Z,996.71
2023-03-23T00:38:19.663Z,996.75
2023-03-23T00:38:40.888Z,996.71
2023-03-23T00:39:02.479Z,996.77
2023-03-23T00:39:23.743Z,996.75
2023-03-23T00:39:44.803Z,996.77
2023-03-23T00:40:05.899Z,996.77
2023-03-23T00:40:26.999Z,996.77
2023-03-23T00:40:48.015Z,996.77
2023-03-23T00:41:09.207Z,996.81
2023-03-23T00:41:30.440Z,996.75
2023-03-23T00:41:51.511Z,996.77
2023-03-23T00:42:12.572Z,996.71
2023-03-23T00:42:33.629Z,996.77
2023-03-23T00:42:54.687Z,996.71
2023-03-23T00:43:15.751Z,996.69
2023-03-23T00:43:36.792Z,996.69
2023-03-23T00:43:57.875Z,996.69
2023-03-23T00:44:22.005Z,996.69
2023-03-23T00:44:44.049Z,996.71
2023-03-23T00:45:05.163Z,996.71
2023-03-23T00:45:26.226Z,996.69
2023-03-23T00:45:47.286Z,996.69
2023-03-23T00:46:08.338Z,996.69
2023-03-23T00:46:29.431Z,996.73
2023-03-23T00:46:50.548Z,996.69
2023-03-23T00:47:11.599Z,996.67
2023-03-23T00:47:32.898Z,996.64
2023-03-23T00:47:54.039Z,996.67
2023-03-23T00:48:15.123Z,996.69
2023-03-23T00:48:36.237Z,996.65
2023-03-23T00:48:57.297Z,996.67
2023-03-23T00:49:18.356Z,996.69
2023-03-23T00:49:39.416Z,996.71
2023-03-23T00:50:00.620Z,996.69
2023-03-23T00:50:29.430Z,996.71
2023-03-23T00:50:48.642Z,996.71
2023-03-23T00:51:09.698Z,996.71
2023-03-23T00:51:30.757Z,996.71
2023-03-23T00:51:51.808Z,996.71
2023-03-23T00:52:12.893Z,996.69
2023-03-23T00:52:33.965Z,996.71
2023-03-23T00:52:55.010Z,996.71
2023-03-23T00:53:16.506Z,996.71
2023-03-23T00:53:37.681Z,996.73
2023-03-23T00:53:58.723Z,996.71
2023-03-23T00:54:19.802Z,996.71
2023-03-23T00:54:40.840Z,996.69
2023-03-23T00:55:02.084Z,996.69
2023-03-23T00:55:23.149Z,996.65
2023-03-23T00:55:44.202Z,996.67
2023-03-23T00:56:05.302Z,996.67
2023-03-23T00:56:26.651Z,996.65
2023-03-23T00:56:47.685Z,996.67
2023-03-23T00:57:08.764Z,996.67
2023-03-23T00:57:29.798Z,996.65
2023-03-23T00:57:51.103Z,996.64
2023-03-23T00:58:13.934Z,996.65
2023-03-23T00:58:35.069Z,996.62
2023-03-23T00:58:56.124Z,996.62
2023-03-23T00:59:17.179Z,996.62
2023-03-23T00:59:38.241Z,996.58
2023-03-23T00:59:59.314Z,996.58
2023-03-23T01:00:26.486Z,996.60
2023-03-23T01:00:47.537Z,996.56
2023-03-23T01:01:08.594Z,996.56
2023-03-23T01:01:29.776Z,996.54
2023-03-23T01:01:50.870Z,996.54
2023-03-23T01:02:12.176Z,996.50
2023-03-23T01:02:33.231Z,996.50
2023-03-23T01:02:54.290Z,996.52
2023-03-23T01:03:15.360Z,996.54
2023-03-23T01:03:36.466Z,996.58
2023-03-23T01:03:57.525Z,996.54
2023-03-23T01:04:18.587Z,996.54
2023-03-23T01:04:39.674Z,996.54
2023-03-23T01:05:01.094Z,996.52
2023-03-23T01:05:22.191Z,996.52
2023-03-23T01:05:43.258Z,996.56
2023-03-23T01:06:04.356Z,996.48
2023-03-23T01:06:31.316Z,996.48
2023-03-23T01:06:52.451Z,996.42
2023-03-23T01:07:13.486Z,996.44
2023-03-23T01:07:34.586Z,996.44
2023-03-23T01:07:55.654Z,996.48
2023-03-23T01:08:16.706Z,996.44
2023-03-23T01:08:37.766Z,996.48
2023-03-23T01:08:58.873Z,996.48
2023-03-23T01:09:19.951Z,996.44
2023-03-23T01:09:41.022Z,996.44
2023-03-23T01:10:02.056Z,996.46
2023-03-23T01:10:23.151Z,996.46
2023-03-23T01:10:44.230Z,996.46
2023-03-23T01:11:06.000Z,996.44
2023-03-23T01:11:27.231Z,996.48
2023-03-23T01:11:48.281Z,996.48
2023-03-23T01:12:09.342Z,996.44
2023-03-23T01:12:30.425Z,996.46
2023-03-23T01:12:51.651Z,996.40
2023-03-23T01:13:12.707Z,996.44
2023-03-23T01:13:33.776Z,996.40
2023-03-23T01:13:54.816Z,996.40
2023-03-23T01:14:15.893Z,996.46
2023-03-23T01:14:37.408Z,996.44
2023-03-23T01:14:58.496Z,996.44
2023-03-23T01:15:19.682Z,996.48
2023-03-23T01:15:41.064Z,996.48
2023-03-23T01:16:02.456Z,996.44
2023-03-23T01:16:24.139Z,996.46
2023-03-23T01:16:45.188Z,996.48
2023-03-23T01:17:06.264Z,996.44
2023-03-23T01:17:27.336Z,996.46
2023-03-23T01:17:48.399Z,996.42
2023-03-23T01:18:09.471Z,996.36
2023-03-23T01:18:34.132Z,996.38
2023-03-23T01:18:55.212Z,996.44
2023-03-23T01:19:16.275Z,996.40
2023-03-23T01:19:37.695Z,996.42
2023-03-23T01:19:58.822Z,996.42
2023-03-23T01:20:20.115Z,996.44
2023-03-23T01:20:41.372Z,996.46
2023-03-23T01:21:02.602Z,996.42
2023-03-23T01:21:23.929Z,996.42
2023-03-23T01:21:44.977Z,996.42
2023-03-23T01:22:06.047Z,996.42
2023-03-23T01:22:27.123Z,996.42
2023-03-23T01:22:48.168Z,996.42
2023-03-23T01:23:09.216Z,996.44
2023-03-23T01:23:30.270Z,996.46
2023-03-23T01:23:51.338Z,996.44
2023-03-23T01:24:12.439Z,996.42
2023-03-23T01:24:33.505Z,996.42
2023-03-23T01:24:54.577Z,996.42
2023-03-23T01:25:15.857Z,996.40
2023-03-23T01:25:36.913Z,996.40
2023-03-23T01:25:57.976Z,996.36
2023-03-23T01:26:19.049Z,996.36
2023-03-23T01:26:40.137Z,996.30
2023-03-23T01:27:01.386Z,996.32
2023-03-23T01:27:22.435Z,996.32
2023-03-23T01:27:43.491Z,996.30
2023-03-23T01:28:04.653Z,996.30
2023-03-23T01:28:25.687Z,996.28
2023-03-23T01:28:46.752Z,996.28
2023-03-23T01:29:08.013Z,996.24
2023-03-23T01:29:29.386Z,996.24
2023-03-23T01:29:50.443Z,996.28
2023-03-23T01:30:11.518Z,996.26
2023-03-23T01:30:32.567Z,996.22
2023-03-23T01:30:53.627Z,996.24
2023-03-23T01:31:14.806Z,996.26
2023-03-23T01:31:35.906Z,996.22
2023-03-23T01:31:56.968Z,996.26
2023-03-23T01:32:18.033Z,996.24
2023-03-23T01:32:39.095Z,996.22
2023-03-23T01:33:00.158Z,996.24
2023-03-23T01:33:21.222Z,996.18
2023-03-23T01:33:42.287Z,996.22
2023-03-23T01:34:03.344Z,996.18
2023-03-23T01:34:24.397Z,996.22
2023-03-23T01:34:45.473Z,996.24
2023-03-23T01:35:06.869Z,996.22
2023-03-23T01:35:27.954Z,996.24
2023-03-23T01:35:49.046Z,996.24
2023-03-23T01:36:10.198Z,996.22
2023-03-23T01:36:31.270Z,996.22
2023-03-23T01:36:52.413Z,996.18
2023-03-23T01:37:13.643Z,996.18
2023-03-23T01:37:34.701Z,996.20
2023-03-23T01:37:55.767Z,996.22
2023-03-23T01:38:16.893Z,996.22
2023-03-23T01:38:37.934Z,996.20
2023-03-23T01:38:59.024Z,996.24
2023-03-23T01:39:20.097Z,996.22
2023-03-23T01:39:41.145Z,996.20
2023-03-23T01:40:02.219Z,996.24
2023-03-23T01:40:23.261Z,996.24
2023-03-23T01:40:44.456Z,996.20
2023-03-23T01:41:05.565Z,996.26
2023-03-23T01:41:26.617Z,996.30
2023-03-23T01:41:47.659Z,996.26
2023-03-23T01:42:08.721Z,996.28
2023-03-23T01:42:29.900Z,996.36
2023-03-23T01:42:50.953Z,996.34
2023-03-23T01:43:12.032Z,996.30
2023-03-23T01:43:33.104Z,996.28
2023-03-23T01:43:54.206Z,996.32
2023-03-23T01:44:15.242Z,996.32
2023-03-23T01:44:36.307Z,996.32
2023-03-23T01:44:57.347Z,996.38
2023-03-23T01:45:18.405Z,996.34
2023-03-23T01:45:39.621Z,996.32
2023-03-23T01:46:00.675Z,996.40
2023-03-23T01:46:21.850Z,996.38
2023-03-23T01:46:42.959Z,996.36
2023-03-23T01:47:04.019Z,996.36
2023-03-23T01:47:25.123Z,996.32
2023-03-23T01:47:46.366Z,996.34
2023-03-23T01:48:07.503Z,996.40
2023-03-23T01:48:28.559Z,996.38
2023-03-23T01:48:49.640Z,996.42
2023-03-23T01:49:10.859Z,996.32
2023-03-23T01:49:31.924Z,996.36
2023-03-23T01:49:52.979Z,996.40
2023-03-23T01:50:14.032Z,996.40
2023-03-23T01:50:35.101Z,996.40
2023-03-23T01:50:56.681Z,996.40
2023-03-23T01:51:17.734Z,996.38
2023-03-23T01:51:42.082Z,996.38
2023-03-23T01:52:03.238Z,996.38
2023-03-23T01:52:24.382Z,996.36
2023-03-23T01:52:45.444Z,996.32
2023-03-23T01:53:06.649Z,996.36
2023-03-23T01:53:27.727Z,996.36
2023-03-23T01:53:48.770Z,996.42
2023-03-23T01:54:10.152Z,996.34
2023-03-23T01:54:31.232Z,996.30
2023-03-23T01:54:52.259Z,996.34
2023-03-23T01:55:13.339Z,996.32
2023-03-23T01:55:34.672Z,996.34
2023-03-23T01:55:55.732Z,996.30
2023-03-23T01:56:16.783Z,996.28
2023-03-23T01:56:37.932Z,996.30
2023-03-23T01:56:58.982Z,996.22
2023-03-23T01:57:20.236Z,996.22
2023-03-23T01:57:45.689Z,996.34
2023-03-23T01:58:27.786Z,996.20
2023-03-23T01:58:48.944Z,996.24
2023-03-23T01:59:10.101Z,996.26
2023-03-23T01:59:31.147Z,996.26
2023-03-23T01:59:52.200Z,996.20
2023-03-23T02:00:13.264Z,996.22
2023-03-23T02:00:34.321Z,996.22
2023-03-23T02:00:55.374Z,996.20
2023-03-23T02:01:16.432Z,996.26
2023-03-23T02:01:37.593Z,996.26
2023-03-23T02:01:58.643Z,996.26
2023-03-23T02:02:20.366Z,996.36
2023-03-23T02:02:41.441Z,996.26
2023-03-23T02:03:02.496Z,996.30
2023-03-23T02:03:23.559Z,996.36
2023-03-23T02:03:44.678Z,996.40
2023-03-23T02:04:05.715Z,996.36
2023-03-23T02:04:27.252Z,996.36
2023-03-23T02:04:48.311Z,996.34
2023-03-23T02:05:09.360Z,996.32
2023-03-23T02:05:30.418Z,996.32
2023-03-23T02:05:51.486Z,996.36
2023-03-23T02:06:12.541Z,996.38
2023-03-23T02:06:33.610Z,996.38
2023-03-23T02:06:54.658Z,996.40
2023-03-23T02:07:15.967Z,996.36
2023-03-23T02:07:36.997Z,996.38
2023-03-23T02:07:58.091Z,996.36
2023-03-23T02:08:19.166Z,996.36
2023-03-23T02:08:40.306Z,996.32
2023-03-23T02:09:10.374Z,996.36
2023-03-23T02:09:28.518Z,996.36
2023-03-23T02:09:49.574Z,996.32
2023-03-23T02:10:10.635Z,996.28
2023-03-23T02:10:31.709Z,996.30
2023-03-23T02:10:52.760Z,996.30
2023-03-23T02:11:22.148Z,996.32
2023-03-23T02:11:40.796Z,996.28
2023-03-23T02:12:01.896Z,996.22
2023-03-23T02:12:23.451Z,996.24
2023-03-23T02:12:44.507Z,996.28
2023-03-23T02:13:06.086Z,996.28
2023-03-23T02:13:27.138Z,996.24
2023-03-23T02:13:48.217Z,996.22
2023-03-23T02:14:09.298Z,996.20
2023-03-23T02:14:30.354Z,996.30
2023-03-23T02:14:51.396Z,996.34
2023-03-23T02:15:12.454Z,996.34
2023-03-23T02:15:33.785Z,996.34
2023-03-23T02:15:54.855Z,996.32
2023-03-23T02:16:15.921Z,996.28
2023-03-23T02:16:36.968Z,996.36
2023-03-23T02:16:58.018Z,996.34
2023-03-23T02:17:19.095Z,996.36
2023-03-23T02:17:40.163Z,996.32
2023-03-23T02:18:01.209Z,996.34
2023-03-23T02:18:22.448Z,996.34
2023-03-23T02:18:43.510Z,996.34
2023-03-23T02:19:04.578Z,996.30
2023-03-23T02:19:25.661Z,996.34
2023-03-23T02:19:46.711Z,996.34
2023-03-23T02:20:07.774Z,996.38
2023-03-23T02:20:28.847Z,996.40
2023-03-23T02:20:49.912Z,996.42
2023-03-23T02:21:10.968Z,996.46
2023-03-23T02:21:32.019Z,996.44
2023-03-23T02:21:53.071Z,996.44
2023-03-23T02:22:14.134Z,996.50
2023-03-23T02:22:35.200Z,996.46
2023-03-23T02:22:56.252Z,996.46
2023-03-23T02:23:17.318Z,996.46
2023-03-23T02:23:38.376Z,996.44
2023-03-23T02:23:59.446Z,996.46
2023-03-23T02:24:20.492Z,996.44
2023-03-23T02:24:41.927Z,996.46
2023-03-23T02:25:02.993Z,996.40
2023-03-23T02:25:24.033Z,996.44
2023-03-23T02:25:45.121Z,996.44
2023-03-23T02:26:06.151Z,996.42
2023-03-23T02:26:27.206Z,996.40
2023-03-23T02:26:48.534Z,996.40
2023-03-23T02:27:09.606Z,996.40
2023-03-23T02:27:30.658Z,996.30
2023-03-23T02:27:51.726Z,996.32
2023-03-23T02:28:12.774Z,996.34
2023-03-23T02:28:33.831Z,996.32
2023-03-23T02:28:54.887Z,996.32
2023-03-23T02:29:16.406Z,996.30
2023-03-23T02:29:37.525Z,996.30
2023-03-23T02:29:58.613Z,996.28
2023-03-23T02:30:19.678Z,996.28
2023-03-23T02:30:40.733Z,996.30
2023-03-23T02:31:02.398Z,996.28
2023-03-23T02:31:23.537Z,996.30
2023-03-23T02:31:44.592Z,996.28
2023-03-23T02:32:05.840Z,996.32
2023-03-23T02:32:26.897Z,996.30
2023-03-23T02:32:48.072Z,996.30
2023-03-23T02:33:09.103Z,996.26
2023-03-23T02:33:30.160Z,996.26
2023-03-23T02:33:51.270Z,996.26
2023-03-23T02:34:12.380Z,996.26
2023-03-23T02:34:33.499Z,996.30
2023-03-23T02:34:54.829Z,996.28
2023-03-23T02:35:15.915Z,996.24
2023-03-23T02:35:37.112Z,996.24
2023-03-23T02:35:58.181Z,996.28
2023-03-23T02:36:19.546Z,996.22
2023-03-23T02:36:41.135Z,996.22
2023-03-23T02:37:02.197Z,996.22
2023-03-23T02:37:23.254Z,996.22
2023-03-23T02:37:44.303Z,996.18
2023-03-23T02:38:05.503Z,996.16
2023-03-23T02:38:26.579Z,996.14
2023-03-23T02:38:47.622Z,996.12
2023-03-23T02:39:08.877Z,996.12
2023-03-23T02:39:30.164Z,996.12
2023-03-23T02:39:51.226Z,996.10
2023-03-23T02:40:12.276Z,996.10
2023-03-23T02:40:33.428Z,996.10
2023-03-23T02:40:54.479Z,996.10
2023-03-23T02:41:15.521Z,996.09
2023-03-23T02:41:36.608Z,996.09
2023-03-23T02:41:57.674Z,996.07
2023-03-23T02:42:18.722Z,996.05
2023-03-23T02:42:39.780Z,996.09
2023-03-23T02:43:00.811Z,996.03
2023-03-23T02:43:22.018Z,996.03
2023-03-23T02:43:48.985Z,996.07
2023-03-23T02:44:10.239Z,996.03
2023-03-23T02:44:31.667Z,996.07
2023-03-23T02:44:52.737Z,996.05
2023-03-23T02:45:13.881Z,996.05
2023-03-23T02:45:34.949Z,996.09
2023-03-23T02:45:56.006Z,996.05
2023-03-23T02:46:17.057Z,996.09
2023-03-23T02:46:38.130Z,996.09
2023-03-23T02:46:59.188Z,996.07
2023-03-23T02:47:20.269Z,996.09
2023-03-23T02:47:41.325Z,996.07
2023-03-23T02:48:02.377Z,996.09
2023-03-23T02:48:23.732Z,996.09
2023-03-23T02:48:44.810Z,996.05
2023-03-23T02:49:05.835Z,996.05
2023-03-23T02:49:26.933Z,996.05
2023-03-23T02:49:47.978Z,996.09
2023-03-23T02:50:09.058Z,996.07
2023-03-23T02:50:30.122Z,996.09
2023-03-23T02:50:51.402Z,996.07
2023-03-23T02:51:12.479Z,996.09
2023-03-23T02:51:33.693Z,996.07
2023-03-23T02:52:00.679Z,996.10
2023-03-23T02:52:21.716Z,996.10
2023-03-23T02:52:42.961Z,996.10
2023-03-23T02:53:04.018Z,996.10
2023-03-23T02:53:25.320Z,996.14
2023-03-23T02:53:46.389Z,996.12
2023-03-23T02:54:07.443Z,996.16
2023-03-23T02:54:28.502Z,996.12
2023-03-23T02:54:49.782Z,996.14
2023-03-23T02:55:11.031Z,996.14
2023-03-23T02:55:32.106Z,996.16
2023-03-23T02:55:53.167Z,996.14
2023-03-23T02:56:14.470Z,996.10
2023-03-23T02:56:35.523Z,996.10
2023-03-23T02:56:56.609Z,996.10
2023-03-23T02:57:17.669Z,996.09
2023-03-23T02:57:40.460Z,996.10
2023-03-23T02:58:01.716Z,996.12
2023-03-23T02:58:22.792Z,996.10
2023-03-23T02:58:43.843Z,996.10
2023-03-23T02:59:04.890Z,996.09
2023-03-23T02:59:26.121Z,996.12
2023-03-23T02:59:47.458Z,996.12
2023-03-23T03:00:08.509Z,996.12
2023-03-23T03:00:30.010Z,996.12
2023-03-23T03:00:51.172Z,996.14
2023-03-23T03:01:12.307Z,996.12
2023-03-23T03:01:33.409Z,996.14
2023-03-23T03:01:54.461Z,996.12
2023-03-23T03:02:15.566Z,996.12
2023-03-23T03:02:36.669Z,996.16
2023-03-23T03:02:57.818Z,996.16
2023-03-23T03:03:18.880Z,996.18
2023-03-23T03:03:40.101Z,996.20
2023-03-23T03:04:01.154Z,996.22
2023-03-23T03:04:22.250Z,996.20
2023-03-23T03:04:43.677Z,996.22
2023-03-23T03:05:08.095Z,996.20
2023-03-23T03:05:29.216Z,996.22
2023-03-23T03:05:50.269Z,996.20
2023-03-23T03:06:11.338Z,996.24
2023-03-23T03:06:32.430Z,996.26
2023-03-23T03:06:53.751Z,996.28
2023-03-23T03:07:14.945Z,996.32
2023-03-23T03:07:35.999Z,996.30
2023-03-23T03:07:57.069Z,996.32
2023-03-23T03:08:18.285Z,996.30
2023-03-23T03:08:39.793Z,996.34
2023-03-23T03:09:00.974Z,996.32
2023-03-23T03:09:22.317Z,996.34
2023-03-23T03:09:43.400Z,996.36
2023-03-23T03:10:04.474Z,996.34
2023-03-23T03:10:25.516Z,996.36
2023-03-23T03:10:46.583Z,996.40
2023-03-23T03:11:07.722Z,996.38
2023-03-23T03:11:28.972Z,996.38
2023-03-23T03:11:50.034Z,996.34
2023-03-23T03:12:11.105Z,996.34
2023-03-23T03:12:32.308Z,996.34
2023-03-23T03:12:53.410Z,996.32
2023-03-23T03:13:14.438Z,996.34
2023-03-23T03:13:35.596Z,996.32
2023-03-23T03:13:57.036Z,996.34
2023-03-23T03:14:18.141Z,996.34
2023-03-23T03:14:39.234Z,996.32
2023-03-23T03:15:00.291Z,996.34
2023-03-23T03:15:21.369Z,996.34
2023-03-23T03:15:42.627Z,996.32
2023-03-23T03:16:03.884Z,996.34
2023-03-23T03:16:24.915Z,996.30
2023-03-23T03:16:46.048Z,996.36
2023-03-23T03:17:07.355Z,996.32
2023-03-23T03:17:28.463Z,996.30
2023-03-23T03:17:49.549Z,996.28
2023-03-23T03:18:10.634Z,996.28
2023-03-23T03:18:31.721Z,996.24
2023-03-23T03:18:52.762Z,996.22
2023-03-23T03:19:13.830Z,996.22
2023-03-23T03:19:34.881Z,996.20
2023-03-23T03:19:56.006Z,996.16
2023-03-23T03:20:17.193Z,996.16
2023-03-23T03:20:38.266Z,996.12
2023-03-23T03:21:00.550Z,996.12
2023-03-23T03:21:22.113Z,996.10
2023-03-23T03:21:43.304Z,996.09
2023-03-23T03:22:04.739Z,996.07
2023-03-23T03:22:26.012Z,996.12
2023-03-23T03:22:47.174Z,996.07
2023-03-23T03:23:08.232Z,996.07
2023-03-23T03:23:29.312Z,996.07
2023-03-23T03:23:50.874Z,996.09
2023-03-23T03:24:11.941Z,996.10
2023-03-23T03:24:33.528Z,996.09
2023-03-23T03:24:54.960Z,996.09
2023-03-23T03:25:18.790Z,996.05
2023-03-23T03:25:40.401Z,996.05
2023-03-23T03:26:01.559Z,996.03
2023-03-23T03:26:22.594Z,996.05
2023-03-23T03:26:43.961Z,996.03
2023-03-23T03:27:04.996Z,996.01
2023-03-23T03:27:26.111Z,995.97
2023-03-23T03:27:47.175Z,995.99
2023-03-23T03:28:08.260Z,996.01
2023-03-23T03:28:29.356Z,995.99
2023-03-23T03:28:50.507Z,995.99
2023-03-23T03:29:11.537Z,995.99
2023-03-23T03:29:32.586Z,995.95
2023-03-23T03:29:53.643Z,995.99
2023-03-23T03:30:14.722Z,995.99
2023-03-23T03:30:35.766Z,995.95
2023-03-23T03:30:56.832Z,995.97
2023-03-23T03:31:18.032Z,995.95
2023-03-23T03:31:39.135Z,995.97
2023-03-23T03:32:00.202Z,995.95
2023-03-23T03:32:21.511Z,995.93
2023-03-23T03:32:42.553Z,995.97
2023-03-23T03:33:03.790Z,995.95
2023-03-23T03:33:24.912Z,995.95
2023-03-23T03:33:45.980Z,995.93
2023-03-23T03:34:07.018Z,995.93
2023-03-23T03:34:28.071Z,995.95
2023-03-23T03:34:49.124Z,995.97
2023-03-23T03:35:10.344Z,996.01
2023-03-23T03:35:31.422Z,995.95
2023-03-23T03:35:52.579Z,995.99
2023-03-23T03:36:13.652Z,995.95
2023-03-23T03:36:34.697Z,995.99
2023-03-23T03:36:55.947Z,995.99
2023-03-23T03:37:17.004Z,995.93
2023-03-23T03:37:38.083Z,995.97
2023-03-23T03:37:59.217Z,995.97
2023-03-23T03:38:20.289Z,996.01
2023-03-23T03:38:41.352Z,995.99
2023-03-23T03:39:02.494Z,996.01
2023-03-23T03:39:23.541Z,996.03
2023-03-23T03:39:44.612Z,996.03
2023-03-23T03:40:06.092Z,996.01
2023-03-23T03:40:27.186Z,996.01
2023-03-23T03:40:48.333Z,996.03
2023-03-23T03:41:09.409Z,996.03
2023-03-23T03:41:30.519Z,995.99
2023-03-23T03:41:51.597Z,996.01
2023-03-23T03:42:12.651Z,996.01
2023-03-23T03:42:34.258Z,996.01
2023-03-23T03:42:55.370Z,996.01
2023-03-23T03:43:16.620Z,996.03
2023-03-23T03:43:37.842Z,995.99
2023-03-23T03:43:58.894Z,995.99
2023-03-23T03:44:20.377Z,996.01
2023-03-23T03:44:41.431Z,995.99
2023-03-23T03:45:02.511Z,995.99
2023-03-23T03:45:23.553Z,996.01
2023-03-23T03:45:44.773Z,995.97
2023-03-23T03:46:05.829Z,995.99
2023-03-23T03:46:26.898Z,995.97
2023-03-23T03:46:47.958Z,995.97
2023-03-23T03:47:09.238Z,996.01
2023-03-23T03:47:30.330Z,995.97
2023-03-23T03:47:51.373Z,995.99
2023-03-23T03:48:12.600Z,995.95
2023-03-23T03:48:33.645Z,995.95
2023-03-23T03:48:54.722Z,995.99
2023-03-23T03:49:15.810Z,995.99
2023-03-23T03:49:36.876Z,996.01
2023-03-23T03:49:57.928Z,995.99
2023-03-23T03:50:19.331Z,995.99
2023-03-23T03:50:40.394Z,995.97
2023-03-23T03:51:01.449Z,995.97
2023-03-23T03:51:22.511Z,995.99
2023-03-23T03:51:43.797Z,995.99
2023-03-23T03:52:05.073Z,995.99
2023-03-23T03:52:26.136Z,996.01
2023-03-23T03:52:47.268Z,995.99
2023-03-23T03:53:08.344Z,995.99
2023-03-23T03:53:29.390Z,996.01
2023-03-23T03:53:50.562Z,996.01
2023-03-23T03:54:11.631Z,996.03
2023-03-23T03:54:32.768Z,996.05
2023-03-23T03:54:54.298Z,996.03
2023-03-23T03:55:15.357Z,996.03
2023-03-23T03:55:36.406Z,996.03
2023-03-23T03:55:57.943Z,996.03
2023-03-23T03:56:19.023Z,996.03
2023-03-23T03:56:40.243Z,996.03
2023-03-23T03:57:01.398Z,996.05
2023-03-23T03:57:22.836Z,996.03
2023-03-23T03:57:43.889Z,996.05
2023-03-23T03:58:04.945Z,996.05
2023-03-23T03:58:26.176Z,996.05
2023-03-23T03:58:47.238Z,996.05
2023-03-23T03:59:21.726Z,996.07
2023-03-23T03:59:41.197Z,996.10
2023-03-23T04:00:02.692Z,996.16
2023-03-23T04:00:23.971Z,996.09
2023-03-23T04:00:45.031Z,996.14
2023-03-23T04:01:06.363Z,996.12
2023-03-23T04:01:27.645Z,996.14
2023-03-23T04:01:48.687Z,996.10
2023-03-23T04:02:10.622Z,996.10
2023-03-23T04:02:31.765Z,996.10
2023-03-23T04:02:52.839Z,996.10
2023-03-23T04:03:14.498Z,996.09
2023-03-23T04:03:35.786Z,996.12
2023-03-23T04:03:56.840Z,996.10
2023-03-23T04:04:18.061Z,996.14
2023-03-23T04:04:39.131Z,996.12
2023-03-23T04:05:00.356Z,996.12
2023-03-23T04:05:21.542Z,996.12
2023-03-23T04:05:43.357Z,996.10
2023-03-23T04:06:04.606Z,996.10
2023-03-23T04:06:25.688Z,996.12
2023-03-23T04:06:46.723Z,996.12
2023-03-23T04:07:07.775Z,996.10
2023-03-23T04:07:28.878Z,996.12
2023-03-23T04:07:51.265Z,996.12
2023-03-23T04:08:12.340Z,996.12
2023-03-23T04:08:33.402Z,996.10
2023-03-23T04:08:54.450Z,996.10
2023-03-23T04:09:21.461Z,996.10
2023-03-23T04:09:42.617Z,996.12
2023-03-23T04:10:03.904Z,996.14
2023-03-23T04:10:32.885Z,996.14
2023-03-23T04:10:51.969Z,996.14
2023-03-23T04:11:13.079Z,996.12
2023-03-23T04:11:40.041Z,996.14
2023-03-23T04:12:01.560Z,996.14
2023-03-23T04:12:22.649Z,996.16
2023-03-23T04:12:43.706Z,996.18
2023-03-23T04:13:05.089Z,996.20
2023-03-23T04:13:26.141Z,996.22
2023-03-23T04:13:47.511Z,996.22
2023-03-23T04:14:08.698Z,996.24
2023-03-23T04:14:29.777Z,996.24
2023-03-23T04:14:50.841Z,996.26
2023-03-23T04:15:11.947Z,996.28
2023-03-23T04:15:33.319Z,996.24
2023-03-23T04:16:10.113Z,996.24
2023-03-23T04:16:21.341Z,996.28
2023-03-23T04:16:43.091Z,996.24
2023-03-23T04:17:10.047Z,996.24
2023-03-23T04:17:31.644Z,996.26
2023-03-23T04:17:52.732Z,996.26
2023-03-23T04:18:13.774Z,996.24
2023-03-23T04:18:34.859Z,996.22
2023-03-23T04:18:56.248Z,996.24
2023-03-23T04:19:17.308Z,996.22
2023-03-23T04:19:38.378Z,996.26
2023-03-23T04:19:59.543Z,996.22
2023-03-23T04:20:31.651Z,996.22
2023-03-23T04:20:47.595Z,996.20
2023-03-23T04:21:08.652Z,996.22
2023-03-23T04:21:29.717Z,996.16
2023-03-23T04:21:50.766Z,996.16
2023-03-23T04:22:11.831Z,996.16
2023-03-23T04:22:33.154Z,996.12
2023-03-23T04:22:54.363Z,996.14
2023-03-23T04:23:15.890Z,996.14
2023-03-23T04:23:37.888Z,996.14
2023-03-23T04:23:59.052Z,996.10
2023-03-23T04:24:23.484Z,996.10
2023-03-23T04:24:56.387Z,996.09
2023-03-23T04:25:14.072Z,996.10
2023-03-23T04:25:35.119Z,996.12
2023-03-23T04:25:56.288Z,996.12
2023-03-23T04:26:17.330Z,996.14